Time;durP1;ratioP1;P1;durP2;ratioP2;P2;SDS_P1;SDS_P2;PMS_P1;PMS_P2;Temp;Humidity;BMP_temperature;BMP_pressure;BME280_temperature;BME280_humidity;BME280_pressure;Samples;Min_cycle;Max_cycle;Signal;HPM_P1;HPM_P2
2024/01/25 00:00:48;;;;;;;73.32;8.60;;;;;;;;;;5004527;28;20265;-68
2024/01/25 00:03:13;;;;;;;55.97;8.98;;;;;;;;;;5003482;28;20025;-68
2024/01/25 00:05:38;;;;;;;81.85;11.43;;;;;;;;;;5002082;28;20038;-68
2024/01/25 00:08:04;;;;;;;65.23;10.47;;;;;;;;;;5005775;28;20496;-68
2024/01/25 00:10:29;;;;;;;67.20;10.93;;;;;;;;;;5003857;28;20329;-68
2024/01/25 00:12:54;;;;;;;79.50;12.00;;;;;;;;;;5004613;28;20383;-68
2024/01/25 00:15:19;;;;;;;61.70;8.55;;;;;;;;;;5006387;28;20300;-68
2024/01/25 00:17:44;;;;;;;66.15;8.43;;;;;;;;;;5006875;28;20353;-68
2024/01/25 00:20:13;;;;;;;72.00;9.43;;;;;;;;;;5007404;28;20393;-68
2024/01/25 00:22:38;;;;;;;66.57;10.90;;;;;;;;;;5006169;28;20268;-68
2024/01/25 00:25:03;;;;;;;56.80;7.78;;;;;;;;;;5010197;28;20373;-68
2024/01/25 00:27:28;;;;;;;75.68;9.45;;;;;;;;;;5005663;28;20363;-68
2024/01/25 00:29:54;;;;;;;55.67;7.93;;;;;;;;;;5010094;28;20417;-68
2024/01/25 00:32:19;;;;;;;69.05;10.63;;;;;;;;;;5008927;28;20280;-68
2024/01/25 00:34:44;;;;;;;64.65;10.63;;;;;;;;;;5010740;28;20042;-68
2024/01/25 00:37:10;;;;;;;81.15;10.95;;;;;;;;;;5011840;28;20029;-68
2024/01/25 00:39:35;;;;;;;61.78;8.35;;;;;;;;;;5009429;28;20076;-67
2024/01/25 00:42:04;;;;;;;75.32;7.57;;;;;;;;;;5004528;28;20030;-68
2024/01/25 00:44:29;;;;;;;77.22;9.00;;;;;;;;;;5010612;28;20096;-68
2024/01/25 00:46:54;;;;;;;71.90;9.95;;;;;;;;;;5012515;28;20054;-68
2024/01/25 00:49:20;;;;;;;72.70;10.15;;;;;;;;;;5012004;28;20033;-68
2024/01/25 00:51:47;;;;;;;67.85;9.70;;;;;;;;;;5011673;28;20034;-68
2024/01/25 00:54:13;;;;;;;58.67;7.90;;;;;;;;;;5010643;28;20398;-67
2024/01/25 00:56:39;;;;;;;64.65;8.68;;;;;;;;;;5011886;28;20377;-68
2024/01/25 00:59:04;;;;;;;49.53;8.38;;;;;;;;;;5009835;28;20024;-68
2024/01/25 01:01:29;;;;;;;76.57;9.88;;;;;;;;;;5010369;28;20017;-68
2024/01/25 01:03:55;;;;;;;69.30;9.55;;;;;;;;;;5012083;28;20502;-68
2024/01/25 01:06:20;;;;;;;73.85;10.27;;;;;;;;;;5008718;28;20021;-68
2024/01/25 01:08:46;;;;;;;87.53;10.32;;;;;;;;;;5008021;28;20564;-68
2024/01/25 01:11:11;;;;;;;56.85;7.40;;;;;;;;;;5008056;28;20026;-68
2024/01/25 01:13:36;;;;;;;69.10;10.47;;;;;;;;;;5007309;28;20045;-68
2024/01/25 01:16:01;;;;;;;78.60;12.15;;;;;;;;;;5008044;28;20260;-68
2024/01/25 01:18:26;;;;;;;73.00;7.82;;;;;;;;;;5005841;28;20075;-68
2024/01/25 01:20:52;;;;;;;72.90;10.90;;;;;;;;;;5009943;28;20030;-68
2024/01/25 01:23:17;;;;;;;62.17;7.67;;;;;;;;;;5009469;28;20265;-68
2024/01/25 01:25:42;;;;;;;62.22;8.77;;;;;;;;;;5006118;28;20678;-68
2024/01/25 01:28:07;;;;;;;58.17;9.00;;;;;;;;;;5007868;28;20064;-68
2024/01/25 01:30:33;;;;;;;76.27;11.43;;;;;;;;;;5005989;28;20033;-68
2024/01/25 01:32:58;;;;;;;66.63;7.90;;;;;;;;;;5003209;28;20383;-68
2024/01/25 01:35:23;;;;;;;70.03;8.77;;;;;;;;;;5006076;28;20265;-67
2024/01/25 01:37:48;;;;;;;65.90;11.20;;;;;;;;;;5009417;28;20357;-67
2024/01/25 01:40:13;;;;;;;57.97;8.03;;;;;;;;;;5004814;28;20337;-67
2024/01/25 01:42:39;;;;;;;45.35;6.88;;;;;;;;;;5005592;28;20344;-68
2024/01/25 01:45:04;;;;;;;79.18;8.77;;;;;;;;;;5007756;28;20033;-68
2024/01/25 01:47:30;;;;;;;67.85;9.15;;;;;;;;;;5005421;28;20463;-68
2024/01/25 01:49:56;;;;;;;77.18;12.20;;;;;;;;;;5006544;28;20037;-68
2024/01/25 01:52:21;;;;;;;57.38;7.90;;;;;;;;;;5007155;28;20037;-67
2024/01/25 01:54:47;;;;;;;57.35;7.68;;;;;;;;;;5003294;28;20390;-68
2024/01/25 01:57:12;;;;;;;63.97;9.80;;;;;;;;;;5005059;28;20034;-68
2024/01/25 01:59:38;;;;;;;58.30;7.40;;;;;;;;;;5005795;28;20037;-68
2024/01/25 02:02:03;;;;;;;61.77;8.77;;;;;;;;;;5006495;28;20029;-67
2024/01/25 02:04:28;;;;;;;66.97;8.35;;;;;;;;;;5005795;28;20363;-67
2024/01/25 02:06:53;;;;;;;67.65;9.73;;;;;;;;;;5006874;28;20033;-67
2024/01/25 02:09:18;;;;;;;75.45;10.20;;;;;;;;;;5005986;28;20029;-67
2024/01/25 02:11:44;;;;;;;71.57;10.55;;;;;;;;;;5007385;28;20022;-67
2024/01/25 02:14:11;;;;;;;58.92;9.55;;;;;;;;;;5007981;28;20036;-67
2024/01/25 02:16:37;;;;;;;68.20;9.45;;;;;;;;;;5006751;28;20026;-67
2024/01/25 02:19:03;;;;;;;63.08;8.10;;;;;;;;;;5004718;28;20026;-68
2024/01/25 02:21:28;;;;;;;59.90;7.10;;;;;;;;;;5006273;28;20021;-67
2024/01/25 02:23:53;;;;;;;58.25;7.93;;;;;;;;;;5001737;28;20051;-67
2024/01/25 02:26:18;;;;;;;71.03;9.90;;;;;;;;;;5005686;28;20018;-67
2024/01/25 02:28:43;;;;;;;59.33;7.18;;;;;;;;;;5009751;28;20663;-67
2024/01/25 02:31:09;;;;;;;57.58;8.05;;;;;;;;;;5008908;28;20026;-67
2024/01/25 02:33:34;;;;;;;54.92;8.50;;;;;;;;;;5007887;28;20018;-67
2024/01/25 02:35:59;;;;;;;69.43;8.03;;;;;;;;;;5008869;28;20025;-68
2024/01/25 02:38:24;;;;;;;49.65;6.32;;;;;;;;;;5008258;28;20352;-68
2024/01/25 02:40:49;;;;;;;58.57;8.93;;;;;;;;;;5007679;28;20151;-68
2024/01/25 02:43:14;;;;;;;72.97;10.47;;;;;;;;;;5008549;28;20288;-68
2024/01/25 02:45:40;;;;;;;59.53;11.52;;;;;;;;;;5000174;28;20272;-68
2024/01/25 02:48:05;;;;;;;59.40;8.97;;;;;;;;;;5006983;28;20025;-67
2024/01/25 02:50:30;;;;;;;72.30;8.80;;;;;;;;;;5004018;28;20276;-68
2024/01/25 02:52:55;;;;;;;59.33;8.82;;;;;;;;;;5001127;28;20018;-68
2024/01/25 02:55:21;;;;;;;58.72;7.82;;;;;;;;;;5005496;28;20033;-68
2024/01/25 02:57:46;;;;;;;75.93;9.73;;;;;;;;;;5007567;28;20085;-67
2024/01/25 03:00:12;;;;;;;71.57;10.55;;;;;;;;;;5003818;28;20083;-67
2024/01/25 03:02:37;;;;;;;59.72;8.38;;;;;;;;;;5006398;28;20025;-68
2024/01/25 03:05:02;;;;;;;69.00;7.50;;;;;;;;;;5010077;28;20030;-67
2024/01/25 03:07:27;;;;;;;64.85;10.40;;;;;;;;;;5007448;28;20296;-67
2024/01/25 03:09:52;;;;;;;72.47;9.57;;;;;;;;;;5004367;28;20056;-67
2024/01/25 03:12:19;;;;;;;62.30;8.93;;;;;;;;;;5007854;28;20265;-67
2024/01/25 03:14:44;;;;;;;64.05;9.10;;;;;;;;;;5007383;28;20282;-67
2024/01/25 03:17:09;;;;;;;57.57;7.73;;;;;;;;;;5020996;28;20020;-67
2024/01/25 03:19:34;;;;;;;55.03;7.45;;;;;;;;;;5003539;28;20264;-67
2024/01/25 03:22:02;;;;;;;70.03;8.60;;;;;;;;;;5006857;28;20025;-67
2024/01/25 03:24:27;;;;;;;64.97;7.57;;;;;;;;;;5009495;28;20014;-67
2024/01/25 03:26:52;;;;;;;60.38;8.05;;;;;;;;;;5006263;28;20019;-67
2024/01/25 03:29:17;;;;;;;68.40;10.02;;;;;;;;;;5009191;28;20464;-67
2024/01/25 03:31:42;;;;;;;65.10;10.20;;;;;;;;;;5009028;28;20060;-67
2024/01/25 03:34:07;;;;;;;81.22;11.48;;;;;;;;;;5007362;28;20312;-67
2024/01/25 03:36:33;;;;;;;72.47;9.05;;;;;;;;;;5001447;28;20041;-67
2024/01/25 03:38:58;;;;;;;56.85;7.30;;;;;;;;;;5007777;28;20485;-67
2024/01/25 03:41:23;;;;;;;75.25;7.75;;;;;;;;;;5008961;28;20030;-67
2024/01/25 03:43:49;;;;;;;70.38;8.85;;;;;;;;;;5002968;28;20088;-67
2024/01/25 03:46:14;;;;;;;70.25;9.30;;;;;;;;;;5004990;28;20030;-67
2024/01/25 03:48:39;;;;;;;49.07;7.20;;;;;;;;;;5004656;28;20097;-67
2024/01/25 03:51:05;;;;;;;62.40;9.02;;;;;;;;;;5008494;28;20755;-68
2024/01/25 03:53:30;;;;;;;78.90;10.60;;;;;;;;;;5006544;28;20037;-68
2024/01/25 03:55:55;;;;;;;60.53;6.97;;;;;;;;;;5006793;28;20041;-68
2024/01/25 03:58:20;;;;;;;75.30;11.07;;;;;;;;;;5005727;28;20268;-68
2024/01/25 04:00:45;;;;;;;58.30;7.95;;;;;;;;;;5005351;28;20022;-68
2024/01/25 04:03:11;;;;;;;66.95;9.32;;;;;;;;;;5008956;28;20092;-68
2024/01/25 04:05:36;;;;;;;62.35;7.35;;;;;;;;;;5008892;28;20036;-67
2024/01/25 04:08:01;;;;;;;81.55;10.93;;;;;;;;;;5003749;28;20113;-67
2024/01/25 04:10:26;;;;;;;50.10;8.30;;;;;;;;;;5007906;28;20108;-68
2024/01/25 04:12:52;;;;;;;65.63;9.60;;;;;;;;;;5008105;28;20061;-68
2024/01/25 04:15:17;;;;;;;60.15;8.02;;;;;;;;;;5007408;28;20117;-68
2024/01/25 04:17:42;;;;;;;84.22;11.68;;;;;;;;;;5007339;28;20025;-68
2024/01/25 04:20:08;;;;;;;81.07;9.47;;;;;;;;;;5008632;28;20072;-68
2024/01/25 04:22:33;;;;;;;64.70;8.30;;;;;;;;;;5007124;28;20329;-67
2024/01/25 04:24:59;;;;;;;56.80;9.33;;;;;;;;;;5007316;28;20041;-68
2024/01/25 04:27:24;;;;;;;68.97;9.63;;;;;;;;;;5003920;28;20409;-67
2024/01/25 04:29:49;;;;;;;76.15;8.35;;;;;;;;;;5005865;28;20340;-68
2024/01/25 04:32:14;;;;;;;69.65;8.75;;;;;;;;;;5006433;28;20097;-68
2024/01/25 04:34:39;;;;;;;60.50;8.30;;;;;;;;;;5008189;28;20033;-68
2024/01/25 04:37:05;;;;;;;76.78;8.45;;;;;;;;;;5004692;28;20883;-68
2024/01/25 04:39:30;;;;;;;65.32;8.45;;;;;;;;;;5002698;28;20096;-68
2024/01/25 04:41:55;;;;;;;78.17;11.03;;;;;;;;;;5007018;28;20014;-68
2024/01/25 04:44:20;;;;;;;51.60;7.65;;;;;;;;;;5006955;28;20671;-68
2024/01/25 04:46:45;;;;;;;76.57;8.07;;;;;;;;;;5006340;28;20026;-68
2024/01/25 04:49:11;;;;;;;68.03;7.47;;;;;;;;;;5004366;28;20280;-67
2024/01/25 04:51:36;;;;;;;55.57;9.87;;;;;;;;;;5005464;28;20759;-68
2024/01/25 04:54:01;;;;;;;86.87;8.80;;;;;;;;;;5006229;28;20281;-67
2024/01/25 04:56:26;;;;;;;76.25;9.70;;;;;;;;;;5007468;28;20296;-68
2024/01/25 04:58:51;;;;;;;59.08;7.28;;;;;;;;;;5009535;28;20491;-68
2024/01/25 05:01:17;;;;;;;62.45;7.13;;;;;;;;;;5010585;28;20025;-67
2024/01/25 05:03:42;;;;;;;68.95;8.27;;;;;;;;;;5008456;28;20018;-68
2024/01/25 05:06:07;;;;;;;59.58;8.20;;;;;;;;;;5005820;28;20034;-68
2024/01/25 05:08:32;;;;;;;67.37;9.37;;;;;;;;;;5006325;28;20163;-68
2024/01/25 05:10:58;;;;;;;67.45;7.45;;;;;;;;;;5007411;28;20269;-68
2024/01/25 05:13:23;;;;;;;77.80;8.23;;;;;;;;;;5006637;28;20104;-68
2024/01/25 05:15:48;;;;;;;66.30;7.33;;;;;;;;;;5005849;28;20022;-68
2024/01/25 05:18:13;;;;;;;57.33;7.43;;;;;;;;;;5010335;28;20265;-68
2024/01/25 05:20:39;;;;;;;46.67;7.60;;;;;;;;;;5009037;28;20014;-68
2024/01/25 05:23:04;;;;;;;63.20;8.68;;;;;;;;;;5010051;28;20355;-68
2024/01/25 05:25:30;;;;;;;72.53;7.72;;;;;;;;;;5011087;28;20014;-68
2024/01/25 05:27:55;;;;;;;62.70;8.13;;;;;;;;;;5009518;28;20026;-68
2024/01/25 05:30:21;;;;;;;72.35;8.38;;;;;;;;;;5010167;28;20038;-68
2024/01/25 05:32:48;;;;;;;60.80;7.82;;;;;;;;;;5009532;28;20049;-68
2024/01/25 05:35:13;;;;;;;50.72;7.43;;;;;;;;;;5011942;28;20088;-68
2024/01/25 05:37:38;;;;;;;65.80;8.52;;;;;;;;;;5010838;28;20010;-68
2024/01/25 05:40:04;;;;;;;55.63;7.35;;;;;;;;;;5011034;28;20511;-67
2024/01/25 05:42:29;;;;;;;80.80;8.35;;;;;;;;;;5009881;28;20025;-68
2024/01/25 05:44:54;;;;;;;67.57;9.67;;;;;;;;;;5009459;28;20489;-68
2024/01/25 05:47:20;;;;;;;61.40;8.30;;;;;;;;;;5010194;28;20340;-68
2024/01/25 05:49:45;;;;;;;83.90;8.93;;;;;;;;;;5008703;28;20340;-68
2024/01/25 05:52:10;;;;;;;64.05;7.70;;;;;;;;;;5009983;28;20405;-68
2024/01/25 05:54:35;;;;;;;76.43;9.30;;;;;;;;;;5009935;28;20448;-68
2024/01/25 05:57:01;;;;;;;53.67;9.20;;;;;;;;;;5010000;28;20287;-68
2024/01/25 05:59:26;;;;;;;64.30;8.30;;;;;;;;;;5010698;28;20269;-68
2024/01/25 06:01:51;;;;;;;68.03;8.53;;;;;;;;;;5010933;28;20310;-68
2024/01/25 06:04:16;;;;;;;70.33;8.33;;;;;;;;;;5008118;28;20277;-68
2024/01/25 06:06:41;;;;;;;72.80;8.97;;;;;;;;;;5009930;28;20344;-68
2024/01/25 06:09:07;;;;;;;70.68;8.10;;;;;;;;;;5006926;28;20281;-68
2024/01/25 06:11:33;;;;;;;57.72;8.88;;;;;;;;;;5008682;28;20135;-67
2024/01/25 06:13:58;;;;;;;70.13;9.05;;;;;;;;;;5005327;28;20037;-68
2024/01/25 06:16:23;;;;;;;63.67;8.48;;;;;;;;;;5010093;28;20030;-68
2024/01/25 06:18:48;;;;;;;75.83;9.13;;;;;;;;;;5006866;28;20026;-68
2024/01/25 06:21:14;;;;;;;65.53;8.73;;;;;;;;;;5009500;28;20604;-68
2024/01/25 06:23:40;;;;;;;73.35;8.95;;;;;;;;;;5008509;28;20297;-68
2024/01/25 06:26:05;;;;;;;71.18;8.52;;;;;;;;;;5003466;28;20037;-68
2024/01/25 06:28:30;;;;;;;85.18;8.38;;;;;;;;;;5006473;28;20030;-68
2024/01/25 06:30:56;;;;;;;83.60;9.17;;;;;;;;;;5007067;28;20022;-68
2024/01/25 06:33:21;;;;;;;51.75;8.68;;;;;;;;;;5005862;28;20280;-68
2024/01/25 06:35:47;;;;;;;70.60;11.40;;;;;;;;;;5009819;28;20432;-68
2024/01/25 06:38:12;;;;;;;95.35;10.68;;;;;;;;;;5007575;28;20029;-68
2024/01/25 06:40:38;;;;;;;62.37;7.20;;;;;;;;;;5006096;28;20018;-68
2024/01/25 06:43:03;;;;;;;52.85;7.70;;;;;;;;;;5003113;28;20268;-68
2024/01/25 06:45:28;;;;;;;63.22;7.03;;;;;;;;;;5006595;28;20018;-68
2024/01/25 06:47:54;;;;;;;68.82;11.18;;;;;;;;;;5005273;28;20072;-68
2024/01/25 06:50:19;;;;;;;61.30;10.90;;;;;;;;;;5004786;28;20022;-68
2024/01/25 06:52:44;;;;;;;75.97;9.57;;;;;;;;;;5008142;28;20286;-69
2024/01/25 06:55:09;;;;;;;49.33;7.87;;;;;;;;;;5007536;28;20334;-68
2024/01/25 06:57:34;;;;;;;68.90;8.40;;;;;;;;;;5005979;28;20276;-68
2024/01/25 06:59:59;;;;;;;84.00;9.50;;;;;;;;;;5008899;28;20094;-68
2024/01/25 07:02:25;;;;;;;49.70;8.23;;;;;;;;;;5001091;28;20282;-68
2024/01/25 07:04:52;;;;;;;60.45;8.60;;;;;;;;;;5006907;28;20423;-68
2024/01/25 07:07:18;;;;;;;48.63;7.93;;;;;;;;;;5003686;28;20022;-68
2024/01/25 07:09:43;;;;;;;60.67;7.97;;;;;;;;;;5004415;28;20029;-68
2024/01/25 07:12:08;;;;;;;59.90;8.20;;;;;;;;;;5001063;28;20092;-68
2024/01/25 07:14:33;;;;;;;57.45;8.70;;;;;;;;;;5007505;28;20288;-68
2024/01/25 07:16:58;;;;;;;46.53;7.90;;;;;;;;;;5002334;28;20014;-68
2024/01/25 07:19:23;;;;;;;65.03;7.90;;;;;;;;;;4998683;28;20390;-68
2024/01/25 07:21:49;;;;;;;59.22;8.77;;;;;;;;;;5006945;28;20265;-68
2024/01/25 07:24:14;;;;;;;53.47;7.95;;;;;;;;;;4999846;28;20042;-68
2024/01/25 07:26:39;;;;;;;61.63;8.75;;;;;;;;;;5005679;28;20026;-68
2024/01/25 07:29:04;;;;;;;72.32;8.20;;;;;;;;;;5001579;28;20033;-68
2024/01/25 07:31:29;;;;;;;65.17;8.30;;;;;;;;;;5007470;28;20021;-68
2024/01/25 07:33:57;;;;;;;55.45;8.57;;;;;;;;;;5007837;28;20284;-68
2024/01/25 07:36:23;;;;;;;53.33;7.63;;;;;;;;;;4996097;28;20019;-68
2024/01/25 07:38:48;;;;;;;54.87;7.57;;;;;;;;;;5003210;28;20029;-68
2024/01/25 07:41:13;;;;;;;48.03;6.85;;;;;;;;;;4996772;28;21161;-68
2024/01/25 07:43:39;;;;;;;52.90;8.95;;;;;;;;;;5005137;28;20393;-68
2024/01/25 07:46:04;;;;;;;56.15;8.60;;;;;;;;;;5000945;28;20026;-68
2024/01/25 07:48:29;;;;;;;73.95;12.27;;;;;;;;;;5006696;28;20358;-68
2024/01/25 07:50:54;;;;;;;58.38;8.45;;;;;;;;;;5000342;28;20021;-68
2024/01/25 07:53:20;;;;;;;51.97;9.37;;;;;;;;;;5008740;28;20041;-68
2024/01/25 07:55:45;;;;;;;55.65;9.75;;;;;;;;;;5008801;28;20261;-68
2024/01/25 07:58:10;;;;;;;52.88;9.20;;;;;;;;;;5020852;28;20113;-68
2024/01/25 08:00:35;;;;;;;61.95;10.07;;;;;;;;;;5007344;28;20535;-68
2024/01/25 08:03:01;;;;;;;42.00;10.13;;;;;;;;;;5008917;28;20036;-68
2024/01/25 08:05:26;;;;;;;51.10;9.38;;;;;;;;;;5008761;28;20032;-68
2024/01/25 08:07:51;;;;;;;49.08;8.40;;;;;;;;;;5008616;28;20477;-68
2024/01/25 08:10:17;;;;;;;57.63;10.10;;;;;;;;;;5006617;28;20141;-68
2024/01/25 08:12:44;;;;;;;43.03;9.13;;;;;;;;;;5000889;28;20109;-68
2024/01/25 08:15:09;;;;;;;50.75;10.45;;;;;;;;;;5009571;28;20265;-68
2024/01/25 08:17:36;;;;;;;47.60;8.57;;;;;;;;;;5008496;28;20143;-68
2024/01/25 08:20:01;;;;;;;50.08;8.98;;;;;;;;;;5001456;28;20014;-68
2024/01/25 08:22:26;;;;;;;57.70;9.40;;;;;;;;;;5008348;28;20025;-68
2024/01/25 08:24:51;;;;;;;45.20;8.68;;;;;;;;;;5007059;28;20026;-68
2024/01/25 08:27:16;;;;;;;61.50;9.63;;;;;;;;;;5005698;28;20022;-68
2024/01/25 08:29:42;;;;;;;48.78;10.63;;;;;;;;;;5009086;28;20391;-68
2024/01/25 08:32:07;;;;;;;52.90;8.33;;;;;;;;;;5008890;28;20053;-68
2024/01/25 08:34:32;;;;;;;53.60;8.83;;;;;;;;;;5010446;28;20287;-68
2024/01/25 08:36:57;;;;;;;65.18;9.75;;;;;;;;;;5013043;28;20784;-68
2024/01/25 08:39:23;;;;;;;62.80;10.43;;;;;;;;;;5011575;28;20026;-68
2024/01/25 08:41:50;;;;;;;51.90;10.05;;;;;;;;;;5012485;28;20253;-68
2024/01/25 08:44:15;;;;;;;44.75;8.70;;;;;;;;;;5012100;28;20018;-68
2024/01/25 08:46:42;;;;;;;51.10;9.35;;;;;;;;;;5012505;28;20519;-68
2024/01/25 08:49:09;;;;;;;50.33;11.57;;;;;;;;;;5012748;28;20029;-68
2024/01/25 08:51:34;;;;;;;56.70;8.95;;;;;;;;;;5012434;28;20505;-68
2024/01/25 08:53:59;;;;;;;64.05;11.20;;;;;;;;;;5011728;28;20025;-67
2024/01/25 08:56:25;;;;;;;72.55;9.60;;;;;;;;;;5009192;28;20570;-68
2024/01/25 08:58:50;;;;;;;53.77;9.93;;;;;;;;;;5012451;28;20648;-68
2024/01/25 09:01:15;;;;;;;65.88;10.88;;;;;;;;;;5012106;28;20348;-68
2024/01/25 09:03:41;;;;;;;70.93;12.10;;;;;;;;;;5012166;28;20389;-68
2024/01/25 09:06:06;;;;;;;62.13;10.90;;;;;;;;;;5012349;28;20113;-68
2024/01/25 09:08:32;;;;;;;68.40;11.90;;;;;;;;;;5011831;28;20013;-68
2024/01/25 09:10:57;;;;;;;59.95;12.43;;;;;;;;;;5012659;28;20362;-68
2024/01/25 09:13:22;;;;;;;71.17;10.97;;;;;;;;;;5011938;28;20101;-68
2024/01/25 09:15:47;;;;;;;57.10;10.77;;;;;;;;;;5012167;28;20277;-68
2024/01/25 09:18:13;;;;;;;58.03;10.68;;;;;;;;;;5012382;28;20285;-68
2024/01/25 09:20:38;;;;;;;65.72;11.73;;;;;;;;;;5012270;28;20061;-68
2024/01/25 09:23:03;;;;;;;55.00;10.27;;;;;;;;;;5011710;28;20044;-68
2024/01/25 09:25:28;;;;;;;63.15;11.00;;;;;;;;;;5009025;28;20256;-68
2024/01/25 09:27:53;;;;;;;65.88;11.68;;;;;;;;;;5004614;28;20041;-68
2024/01/25 09:30:19;;;;;;;65.03;12.43;;;;;;;;;;5011779;28;20026;-68
2024/01/25 09:32:44;;;;;;;64.55;12.68;;;;;;;;;;5012079;28;20116;-68
2024/01/25 09:35:09;;;;;;;61.93;12.80;;;;;;;;;;5012271;28;20416;-68
2024/01/25 09:37:35;;;;;;;68.00;11.30;;;;;;;;;;5011281;28;20265;-68
2024/01/25 09:40:00;;;;;;;66.18;12.23;;;;;;;;;;5008567;28;20245;-68
2024/01/25 09:42:25;;;;;;;63.90;12.18;;;;;;;;;;4992540;28;20026;-68
2024/01/25 09:44:52;;;;;;;76.23;12.50;;;;;;;;;;4992330;28;20049;-68
2024/01/25 09:47:19;;;;;;;61.75;12.63;;;;;;;;;;4991579;28;20257;-68
2024/01/25 09:49:44;;;;;;;81.55;12.15;;;;;;;;;;4992436;28;20543;-68
2024/01/25 09:52:11;;;;;;;72.75;12.13;;;;;;;;;;4994097;28;20116;-69
2024/01/25 09:54:38;;;;;;;71.97;14.07;;;;;;;;;;5000575;28;20100;-69
2024/01/25 09:57:05;;;;;;;77.38;13.88;;;;;;;;;;5007295;28;20034;-68
2024/01/25 09:59:31;;;;;;;66.25;13.18;;;;;;;;;;5000437;28;20097;-68
2024/01/25 10:01:56;;;;;;;66.95;13.43;;;;;;;;;;4992382;28;20093;-68
2024/01/25 10:04:23;;;;;;;74.07;12.82;;;;;;;;;;4992047;28;20481;-68
2024/01/25 10:06:48;;;;;;;61.28;13.43;;;;;;;;;;5001262;28;20378;-68
2024/01/25 10:09:14;;;;;;;61.00;13.52;;;;;;;;;;5002564;28;20115;-68
2024/01/25 10:11:39;;;;;;;70.72;14.77;;;;;;;;;;4995880;28;20430;-68
2024/01/25 10:14:04;;;;;;;68.55;15.32;;;;;;;;;;5006706;28;20097;-68
2024/01/25 10:16:30;;;;;;;93.03;15.90;;;;;;;;;;4992187;28;20018;-68
2024/01/25 10:18:55;;;;;;;72.80;15.20;;;;;;;;;;4995700;28;20057;-68
2024/01/25 10:21:21;;;;;;;70.07;14.88;;;;;;;;;;5000273;28;20057;-68
2024/01/25 10:23:51;;;;;;;75.63;16.95;;;;;;;;;;5005118;28;20109;-68
2024/01/25 10:26:17;;;;;;;87.07;16.10;;;;;;;;;;5002509;28;20022;-68
2024/01/25 10:28:42;;;;;;;92.35;16.65;;;;;;;;;;4993532;28;20109;-68
2024/01/25 10:31:08;;;;;;;66.93;15.87;;;;;;;;;;4992000;28;20437;-68
2024/01/25 10:33:34;;;;;;;61.63;14.13;;;;;;;;;;4992867;28;20297;-68
2024/01/25 10:36:02;;;;;;;82.55;16.83;;;;;;;;;;5001046;28;20389;-68
2024/01/25 10:38:34;;;;;;;83.10;15.93;;;;;;;;;;5002710;28;20473;-68
2024/01/25 10:41:03;;;;;;;70.28;16.35;;;;;;;;;;4991944;28;20014;-68
2024/01/25 10:43:32;;;;;;;67.95;15.18;;;;;;;;;;4999363;28;20021;-68
2024/01/25 10:45:58;;;;;;;72.35;16.38;;;;;;;;;;4991811;28;20482;-68
2024/01/25 10:48:27;;;;;;;78.95;16.60;;;;;;;;;;5000451;28;20018;-68
2024/01/25 10:50:56;;;;;;;79.15;18.92;;;;;;;;;;4995438;28;21760;-68
2024/01/25 10:53:21;;;;;;;83.63;17.58;;;;;;;;;;5007568;28;20049;-68
2024/01/25 10:55:47;;;;;;;68.97;18.95;;;;;;;;;;4993001;28;20512;-68
2024/01/25 10:58:13;;;;;;;84.70;18.35;;;;;;;;;;4991884;28;20018;-68
2024/01/25 11:00:38;;;;;;;76.35;17.38;;;;;;;;;;4995322;28;20017;-68
2024/01/25 11:03:05;;;;;;;73.97;15.30;;;;;;;;;;5005564;28;20176;-68
2024/01/25 11:05:31;;;;;;;78.22;18.13;;;;;;;;;;4995655;28;20276;-68
2024/01/25 11:07:56;;;;;;;70.38;15.65;;;;;;;;;;4998907;28;20104;-68
2024/01/25 11:10:22;;;;;;;67.68;13.20;;;;;;;;;;4990066;28;20061;-68
2024/01/25 11:12:51;;;;;;;59.60;10.95;;;;;;;;;;4991533;28;20022;-68
2024/01/25 11:15:23;;;;;;;69.43;13.53;;;;;;;;;;4997774;28;20505;-68
2024/01/25 11:17:55;;;;;;;57.40;11.15;;;;;;;;;;5004827;28;20025;-68
2024/01/25 11:20:24;;;;;;;36.97;8.30;;;;;;;;;;4997155;28;20014;-68
2024/01/25 11:22:56;;;;;;;71.97;11.60;;;;;;;;;;4999247;28;20022;-68
2024/01/25 11:25:21;;;;;;;62.92;14.15;;;;;;;;;;4991435;28;20014;-68
2024/01/25 11:27:48;;;;;;;65.95;12.80;;;;;;;;;;4991630;28;20018;-68
2024/01/25 11:30:13;;;;;;;64.13;12.80;;;;;;;;;;4999734;28;20028;-68
2024/01/25 11:32:39;;;;;;;68.38;12.88;;;;;;;;;;5004778;28;20014;-68
2024/01/25 11:35:04;;;;;;;51.70;10.70;;;;;;;;;;4994938;28;20034;-68
2024/01/25 11:37:30;;;;;;;70.32;11.57;;;;;;;;;;4993948;28;20025;-68
2024/01/25 11:39:55;;;;;;;62.40;12.30;;;;;;;;;;4991621;28;20405;-67
2024/01/25 11:42:20;;;;;;;66.17;10.83;;;;;;;;;;4991033;28;20018;-68
2024/01/25 11:44:45;;;;;;;57.85;11.10;;;;;;;;;;4999823;28;20285;-68
2024/01/25 11:47:11;;;;;;;56.43;11.73;;;;;;;;;;5000926;28;20393;-68
2024/01/25 11:49:36;;;;;;;52.80;11.63;;;;;;;;;;4991663;28;20262;-68
2024/01/25 11:52:02;;;;;;;47.60;12.00;;;;;;;;;;4996192;28;20249;-68
2024/01/25 11:54:27;;;;;;;53.75;12.45;;;;;;;;;;4991239;28;20293;-68
2024/01/25 11:56:52;;;;;;;21.85;4.85;;;;;;;;;;4998397;28;20110;-68
2024/01/25 11:59:18;;;;;;;49.33;10.30;;;;;;;;;;5000250;28;20436;-68
2024/01/25 12:01:43;;;;;;;36.58;7.65;;;;;;;;;;5003642;28;20021;-68
2024/01/25 12:04:09;;;;;;;54.40;9.68;;;;;;;;;;4990906;28;20069;-68
2024/01/25 12:06:34;;;;;;;46.28;8.02;;;;;;;;;;4993389;28;20069;-67
2024/01/25 12:09:09;;;;;;;55.28;9.10;;;;;;;;;;4990665;28;20018;-68
2024/01/25 12:11:34;;;;;;;47.50;9.10;;;;;;;;;;4991320;28;20026;-68
2024/01/25 12:14:00;;;;;;;47.65;9.40;;;;;;;;;;4997236;28;20477;-68
2024/01/25 12:16:25;;;;;;;38.00;10.13;;;;;;;;;;5006399;28;20026;-67
2024/01/25 12:18:50;;;;;;;55.10;9.27;;;;;;;;;;5002319;28;20288;-68
2024/01/25 12:21:15;;;;;;;51.77;9.63;;;;;;;;;;5000701;28;20032;-68
2024/01/25 12:23:40;;;;;;;41.63;8.10;;;;;;;;;;4993128;28;20332;-68
2024/01/25 12:26:06;;;;;;;53.10;9.43;;;;;;;;;;4991336;28;20019;-68
2024/01/25 12:28:32;;;;;;;42.25;7.13;;;;;;;;;;5001737;28;20091;-68
2024/01/25 12:30:58;;;;;;;36.28;7.82;;;;;;;;;;4998781;28;20512;-68
2024/01/25 12:33:23;;;;;;;52.38;10.10;;;;;;;;;;4999457;28;20037;-68
2024/01/25 12:35:48;;;;;;;46.92;8.27;;;;;;;;;;4999927;28;20034;-68
2024/01/25 12:38:13;;;;;;;59.58;8.15;;;;;;;;;;4996909;28;20018;-68
2024/01/25 12:40:40;;;;;;;37.47;7.53;;;;;;;;;;4992272;28;20034;-67
2024/01/25 12:43:06;;;;;;;54.92;8.93;;;;;;;;;;5007896;28;20671;-68
2024/01/25 12:45:31;;;;;;;29.95;6.25;;;;;;;;;;4999642;28;20022;-67
2024/01/25 12:47:57;;;;;;;40.30;9.83;;;;;;;;;;4991553;28;20471;-68
2024/01/25 12:50:22;;;;;;;35.00;7.57;;;;;;;;;;5004664;28;20292;-68
2024/01/25 12:52:47;;;;;;;58.07;7.67;;;;;;;;;;5002129;28;20291;-67
2024/01/25 12:55:12;;;;;;;44.13;7.90;;;;;;;;;;4999064;28;20320;-68
2024/01/25 12:57:37;;;;;;;42.10;7.25;;;;;;;;;;5004571;28;20503;-68
2024/01/25 13:00:03;;;;;;;43.67;7.27;;;;;;;;;;5006292;28;20022;-68
2024/01/25 13:02:28;;;;;;;60.85;8.13;;;;;;;;;;4999807;28;20258;-68
2024/01/25 13:04:54;;;;;;;36.63;7.60;;;;;;;;;;4999083;28;20560;-67
2024/01/25 13:07:19;;;;;;;52.22;7.95;;;;;;;;;;4993808;28;20105;-68
2024/01/25 13:09:45;;;;;;;50.63;7.47;;;;;;;;;;4999112;28;20034;-68
2024/01/25 13:12:10;;;;;;;42.90;7.57;;;;;;;;;;4997650;28;20034;-67
2024/01/25 13:14:35;;;;;;;62.03;8.07;;;;;;;;;;4999030;28;20102;-68
2024/01/25 13:17:00;;;;;;;48.80;9.33;;;;;;;;;;5004234;28;20440;-67
2024/01/25 13:19:26;;;;;;;46.92;7.03;;;;;;;;;;4997973;28;20257;-69
2024/01/25 13:21:51;;;;;;;29.27;5.75;;;;;;;;;;5000500;28;20029;-68
2024/01/25 13:24:17;;;;;;;44.30;7.30;;;;;;;;;;4994462;28;20037;-68
2024/01/25 13:26:42;;;;;;;48.03;6.93;;;;;;;;;;5001382;28;20029;-68
2024/01/25 13:29:12;;;;;;;47.53;6.17;;;;;;;;;;5000127;28;20018;-68
2024/01/25 13:31:37;;;;;;;42.08;8.02;;;;;;;;;;5001504;28;20254;-68
2024/01/25 13:34:02;;;;;;;59.67;8.57;;;;;;;;;;4994325;28;20022;-68
2024/01/25 13:36:28;;;;;;;34.40;7.00;;;;;;;;;;4993880;28;20748;-68
2024/01/25 13:38:53;;;;;;;64.40;7.60;;;;;;;;;;4995397;28;20365;-68
2024/01/25 13:41:18;;;;;;;56.88;6.15;;;;;;;;;;5006392;28;20269;-68
2024/01/25 13:43:43;;;;;;;46.87;7.20;;;;;;;;;;5010124;28;20159;-68
2024/01/25 13:46:08;;;;;;;34.17;6.73;;;;;;;;;;5006567;28;20629;-69
2024/01/25 13:48:33;;;;;;;34.83;6.73;;;;;;;;;;5005268;28;20281;-70
2024/01/25 13:50:59;;;;;;;35.63;6.60;;;;;;;;;;5006690;28;20416;-70
2024/01/25 13:53:24;;;;;;;32.53;6.47;;;;;;;;;;5003592;28;20281;-69
2024/01/25 13:55:49;;;;;;;54.73;7.13;;;;;;;;;;4995487;28;20268;-69
2024/01/25 13:58:14;;;;;;;40.37;7.47;;;;;;;;;;4994281;28;20337;-70
2024/01/25 14:00:39;;;;;;;34.13;6.30;;;;;;;;;;4994341;28;20252;-69
2024/01/25 14:03:05;;;;;;;42.60;7.40;;;;;;;;;;5004257;28;20257;-69
2024/01/25 14:05:30;;;;;;;38.60;8.13;;;;;;;;;;4997310;28;20666;-70
2024/01/25 14:07:55;;;;;;;42.80;6.67;;;;;;;;;;5006606;28;20021;-69
2024/01/25 14:10:20;;;;;;;30.63;5.50;;;;;;;;;;5010903;28;20280;-69
2024/01/25 14:12:45;;;;;;;37.85;7.43;;;;;;;;;;5002836;28;20312;-69
2024/01/25 14:15:11;;;;;;;34.55;7.03;;;;;;;;;;4993651;28;20088;-70